Time;durP1;ratioP1;P1;durP2;ratioP2;P2;SDS_P1;SDS_P2;PMS_P1;PMS_P2;Temp;Humidity;BMP_temperature;BMP_pressure;BME280_temperature;BME280_humidity;BME280_pressure;Samples;Min_cycle;Max_cycle;Signal;HPM_P1;HPM_P2
2021/03/10 00:01:57;;;;;;;46.75;30.15;;;;;;;5.01;69.66;95432.19;5006741;28;20472;-64
2021/03/10 00:04:23;;;;;;;51.60;30.38;;;;;;;4.97;69.48;95412.72;5010301;28;20222;-64
2021/03/10 00:06:48;;;;;;;42.80;29.00;;;;;;;5.12;69.37;95433.81;5014134;28;20041;-65
2021/03/10 00:09:14;;;;;;;49.00;30.42;;;;;;;5.24;69.05;95444.13;5011104;28;20050;-63
2021/03/10 00:11:39;;;;;;;48.88;31.67;;;;;;;5.21;69.13;95435.66;5010991;28;20373;-64
2021/03/10 00:14:05;;;;;;;42.88;29.52;;;;;;;5.18;68.66;95441.47;5012392;28;20054;-63
2021/03/10 00:16:30;;;;;;;41.17;29.20;;;;;;;5.14;69.29;95445.69;5012308;28;20026;-65
2021/03/10 00:18:56;;;;;;;50.45;31.90;;;;;;;4.89;69.31;95445.63;5014237;28;20026;-63
2021/03/10 00:21:21;;;;;;;44.88;29.75;;;;;;;4.88;69.98;95450.13;5011725;28;20100;-65
2021/03/10 00:23:46;;;;;;;48.15;30.67;;;;;;;4.78;70.21;95451.94;5011114;28;20084;-63
2021/03/10 00:26:12;;;;;;;53.72;33.67;;;;;;;4.74;70.34;95446.38;5012605;28;20388;-63
2021/03/10 00:28:37;;;;;;;50.67;32.97;;;;;;;4.53;70.72;95405.22;5012143;28;20495;-63
2021/03/10 00:31:02;;;;;;;49.05;30.95;;;;;;;4.55;71.41;95446.03;5014069;28;20464;-63
2021/03/10 00:33:28;;;;;;;85.70;43.08;;;;;;;4.24;72.80;95412.72;5012050;28;20065;-63
2021/03/10 00:35:53;;;;;;;121.80;47.63;;;;;;;4.31;74.64;95421.22;5011860;28;20061;-63
2021/03/10 00:38:18;;;;;;;100.93;46.58;;;;;;;4.31;75.15;95422.00;5011897;28;20034;-63
2021/03/10 00:40:44;;;;;;;136.88;53.20;;;;;;;4.49;75.72;95460.25;5011903;28;20042;-63
2021/03/10 00:43:09;;;;;;;101.70;48.30;;;;;;;4.41;76.16;95442.31;5012383;28;20037;-63
2021/03/10 00:45:34;;;;;;;114.32;49.28;;;;;;;4.42;76.77;95443.91;5011978;28;20115;-65
2021/03/10 00:48:00;;;;;;;124.80;52.13;;;;;;;4.46;76.52;95462.63;5010380;28;20605;-63
2021/03/10 00:50:28;;;;;;;115.82;50.35;;;;;;;4.28;76.67;95422.50;5011693;28;20057;-65
2021/03/10 00:52:54;;;;;;;108.93;49.25;;;;;;;4.17;76.41;95413.75;5011573;28;20038;-63
2021/03/10 00:55:19;;;;;;;101.55;47.92;;;;;;;4.32;75.76;95428.06;5011675;28;20033;-64
2021/03/10 00:57:44;;;;;;;120.22;49.03;;;;;;;4.50;76.24;95451.28;5013403;28;20380;-63
2021/03/10 01:00:11;;;;;;;106.65;48.13;;;;;;;4.49;75.80;95446.28;5010203;28;20385;-63
2021/03/10 01:02:36;;;;;;;94.95;45.88;;;;;;;4.42;75.31;95439.41;5000702;28;20053;-64
2021/03/10 01:05:02;;;;;;;97.55;46.17;;;;;;;4.49;75.15;95444.44;4996765;28;20049;-63
2021/03/10 01:07:28;;;;;;;102.60;47.17;;;;;;;4.42;75.24;95434.16;5011087;28;20033;-64
2021/03/10 01:09:53;;;;;;;81.38;44.47;;;;;;;4.32;74.89;95417.53;5013363;28;20041;-64
2021/03/10 01:12:18;;;;;;;100.05;47.67;;;;;;;4.26;75.04;95402.75;5011249;28;20523;-64
2021/03/10 01:14:45;;;;;;;92.03;46.47;;;;;;;4.43;74.83;95421.78;5011084;28;20431;-64
2021/03/10 01:17:10;;;;;;;93.78;46.47;;;;;;;4.40;74.92;95411.75;5010345;28;20096;-63
2021/03/10 01:19:35;;;;;;;90.93;45.53;;;;;;;4.42;74.91;95407.81;5010924;28;20034;-63
2021/03/10 01:22:01;;;;;;;93.03;47.05;;;;;;;4.52;74.47;95414.97;5012952;28;20030;-63
2021/03/10 01:24:26;;;;;;;68.50;39.72;;;;;;;4.54;74.01;95420.75;5009830;28;20108;-63
2021/03/10 01:26:51;;;;;;;88.95;44.88;;;;;;;4.29;74.15;95391.69;5023540;23;20539;-77
2021/03/10 01:29:17;;;;;;;85.35;44.63;;;;;;;4.11;74.13;95380.56;5009516;28;20069;-78
2021/03/10 01:31:42;;;;;;;72.90;39.90;;;;;;;4.44;74.28;95421.50;5011498;28;20687;-78
2021/03/10 01:34:07;;;;;;;96.28;45.60;;;;;;;4.16;74.78;95385.84;5014438;28;20104;-78
2021/03/10 01:36:33;;;;;;;86.47;45.65;;;;;;;4.39;75.14;95404.91;5010925;28;20065;-78
2021/03/10 01:38:58;;;;;;;105.85;50.75;;;;;;;4.40;74.97;95402.03;5026686;28;20073;-77
2021/03/10 01:41:24;;;;;;;76.95;43.28;;;;;;;4.05;74.77;95360.53;5010654;28;20046;-77
2021/03/10 01:43:49;;;;;;;84.88;43.20;;;;;;;4.16;74.79;95367.44;5012094;28;20100;-77
2021/03/10 01:46:15;;;;;;;77.05;42.58;;;;;;;4.22;74.28;95384.03;5012656;28;20034;-76
2021/03/10 01:48:41;;;;;;;83.57;44.92;;;;;;;4.07;74.47;95374.22;5011689;28;20496;-77
2021/03/10 01:51:06;;;;;;;92.65;45.92;;;;;;;4.17;74.78;95386.66;5011736;28;20045;-76
2021/03/10 01:53:32;;;;;;;101.20;48.58;;;;;;;4.47;75.43;95424.69;5010481;28;20129;-78
2021/03/10 01:55:58;;;;;;;68.45;40.03;;;;;;;4.32;74.67;95397.25;5010564;28;20647;-78
2021/03/10 01:58:24;;;;;;;73.68;42.72;;;;;;;4.24;75.05;95389.03;5010170;28;20064;-76
2021/03/10 02:00:49;;;;;;;80.03;44.10;;;;;;;4.34;75.37;95416.19;5013761;28;20038;-78
2021/03/10 02:03:15;;;;;;;91.53;47.03;;;;;;;4.32;75.47;95423.56;5010333;28;20041;-77
2021/03/10 02:05:41;;;;;;;89.32;47.08;;;;;;;3.79;75.75;95340.44;5010514;28;20124;-77
2021/03/10 02:08:39;;;;;;;95.32;47.58;;;;;;;4.27;75.65;95413.03;5009947;28;20484;-77
2021/03/10 02:11:26;;;;;;;91.82;48.67;;;;;;;4.29;75.86;95407.50;5010207;28;20042;-77
2021/03/10 02:13:57;;;;;;;95.68;46.33;;;;;;;4.29;76.16;95404.84;5009886;28;20050;-78
2021/03/10 02:16:44;;;;;;;106.15;50.42;;;;;;;4.29;76.03;95408.28;5010553;28;20042;-77
2021/03/10 02:19:37;;;;;;;86.65;45.30;;;;;;;4.21;75.36;95402.72;5012144;28;20457;-77
2021/03/10 02:22:40;;;;;;;83.60;45.35;;;;;;;4.20;75.30;95401.13;5011871;28;20089;-78
2021/03/10 02:25:12;;;;;;;79.63;44.58;;;;;;;3.99;75.86;95364.19;5027016;28;20124;-78
2021/03/10 02:27:50;;;;;;;74.90;42.30;;;;;;;3.99;75.25;95402.88;5009156;28;20050;-78
2021/03/10 02:30:20;;;;;;;83.22;44.45;;;;;;;4.06;75.73;95392.91;5009989;28;20034;-77
2021/03/10 02:32:52;;;;;;;77.18;43.70;;;;;;;3.90;76.10;95361.25;5009697;28;20092;-76
2021/03/10 02:35:19;;;;;;;76.97;44.35;;;;;;;3.79;75.86;95341.22;5010249;28;20042;-78
2021/03/10 02:37:46;;;;;;;80.18;45.45;;;;;;;4.20;75.85;95391.41;5009671;28;20042;-79
2021/03/10 02:40:13;;;;;;;69.88;42.25;;;;;;;4.12;75.71;95382.16;5011688;28;20117;-78
2021/03/10 02:42:39;;;;;;;78.93;45.05;;;;;;;4.25;75.19;95398.50;5009041;28;20054;-77
2021/03/10 02:45:06;;;;;;;76.47;43.45;;;;;;;3.91;75.27;95341.00;5011109;28;20396;-77
2021/03/10 02:47:32;;;;;;;89.22;47.38;;;;;;;3.91;75.06;95372.56;5010391;28;20042;-78
2021/03/10 02:49:59;;;;;;;81.35;45.97;;;;;;;3.93;75.18;95359.94;5009462;28;20424;-78
2021/03/10 02:52:25;;;;;;;79.28;44.25;;;;;;;3.69;75.14;95343.00;5009965;28;20033;-77
2021/03/10 02:54:52;;;;;;;76.28;42.60;;;;;;;3.19;77.58;95405.50;5012648;28;20021;-78
2021/03/10 02:57:18;;;;;;;75.57;43.97;;;;;;;3.38;77.22;95355.97;5006008;28;20038;-78
2021/03/10 02:59:47;;;;;;;85.28;45.72;;;;;;;2.83;76.69;95273.03;5001427;28;20034;-78
2021/03/10 03:02:13;;;;;;;77.80;44.53;;;;;;;3.04;78.89;95395.66;5009028;28;20057;-79
2021/03/10 03:04:40;;;;;;;81.70;46.38;;;;;;;3.52;78.65;95393.13;5009278;28;20044;-79
2021/03/10 03:07:05;;;;;;;76.93;44.00;;;;;;;3.26;77.91;95329.06;5010988;28;20028;-78
2021/03/10 03:09:33;;;;;;;76.95;46.28;;;;;;;3.37;78.00;95363.03;5010478;28;20034;-77
2021/03/10 03:11:59;;;;;;;76.15;44.78;;;;;;;3.38;77.43;95335.72;5010481;28;20033;-76
2021/03/10 03:14:28;;;;;;;76.43;45.00;;;;;;;3.49;77.18;95362.09;5008870;28;20045;-76
2021/03/10 03:16:54;;;;;;;79.30;45.28;;;;;;;2.83;78.58;95341.34;5009231;28;20496;-78
2021/03/10 03:19:20;;;;;;;74.28;43.15;;;;;;;2.89;79.89;95356.09;5009799;28;20022;-76
2021/03/10 03:21:46;;;;;;;76.90;45.45;;;;;;;3.34;79.50;95389.84;5010942;28;20415;-78
2021/03/10 03:24:13;;;;;;;81.03;47.28;;;;;;;3.37;79.20;95407.75;5008855;28;20030;-79
2021/03/10 03:26:39;;;;;;;77.63;45.53;;;;;;;2.99;79.52;95376.44;5009096;28;20046;-76
2021/03/10 03:29:05;;;;;;;81.22;46.63;;;;;;;3.30;78.94;95401.13;5008741;28;20034;-80
2021/03/10 03:31:34;;;;;;;79.97;46.47;;;;;;;2.96;79.71;95374.28;5008686;28;20125;-77
2021/03/10 03:34:00;;;;;;;81.65;46.08;;;;;;;2.81;79.96;95356.53;5011008;28;20040;-77
2021/03/10 03:36:25;;;;;;;76.55;44.70;;;;;;;3.23;79.22;95371.63;5025276;28;20038;-77
2021/03/10 03:38:51;;;;;;;80.88;47.22;;;;;;;3.07;79.32;95379.41;5007708;28;20121;-77
2021/03/10 03:41:19;;;;;;;85.95;47.83;;;;;;;2.92;80.06;95387.16;5008711;28;20045;-79
2021/03/10 03:43:44;;;;;;;90.20;49.70;;;;;;;3.00;78.92;95362.25;5008848;28;20486;-78
2021/03/10 03:46:10;;;;;;;88.93;49.55;;;;;;;3.27;78.86;95377.94;5012178;28;20053;-77
2021/03/10 03:48:35;;;;;;;86.53;49.88;;;;;;;3.73;78.45;95422.97;5008174;28;20049;-77
2021/03/10 03:51:01;;;;;;;84.97;48.63;;;;;;;3.55;78.04;95366.31;5009341;28;20042;-77
2021/03/10 03:53:26;;;;;;;83.85;48.35;;;;;;;3.79;77.79;95445.66;5008583;28;20121;-76
2021/03/10 03:55:52;;;;;;;82.55;47.38;;;;;;;3.49;78.54;95433.88;5008442;28;20042;-76
2021/03/10 03:58:17;;;;;;;84.32;47.88;;;;;;;3.43;78.68;95439.34;5010574;28;20380;-75
2021/03/10 04:00:42;;;;;;;80.95;46.85;;;;;;;3.18;79.06;95387.38;5008867;28;20046;-75
2021/03/10 04:03:08;;;;;;;83.93;49.60;;;;;;;3.64;78.65;95435.84;5008292;28;20049;-79
2021/03/10 04:05:33;;;;;;;86.43;49.78;;;;;;;2.95;80.16;95394.50;5009325;28;20046;-76
2021/03/10 04:08:00;;;;;;;82.18;48.03;;;;;;;3.29;79.54;95394.28;5009767;28;20038;-76
2021/03/10 04:10:31;;;;;;;86.60;48.33;;;;;;;3.15;79.84;95424.66;5009961;28;20084;-78
2021/03/10 04:12:57;;;;;;;83.10;47.63;;;;;;;3.06;79.67;95371.75;5010304;28;20064;-79
2021/03/10 04:15:25;;;;;;;81.82;47.67;;;;;;;3.47;79.79;95422.00;5008454;28;20049;-77
2021/03/10 04:17:51;;;;;;;92.28;51.80;;;;;;;3.09;79.92;95397.53;5008409;28;20149;-77
2021/03/10 04:20:19;;;;;;;87.05;50.00;;;;;;;3.51;79.26;95412.59;5008554;28;20500;-78
2021/03/10 04:22:45;;;;;;;89.63;50.35;;;;;;;3.63;78.85;95434.22;5009548;28;20062;-76
2021/03/10 04:25:12;;;;;;;90.65;51.97;;;;;;;4.02;78.01;95439.22;5011616;28;20468;-76
2021/03/10 04:27:38;;;;;;;90.13;51.97;;;;;;;4.05;77.82;95407.94;5008223;28;20038;-75
2021/03/10 04:30:06;;;;;;;95.50;53.60;;;;;;;4.25;77.22;95427.47;5008474;28;20053;-76
2021/03/10 04:32:31;;;;;;;95.57;52.42;;;;;;;3.96;76.49;95388.41;5009318;28;20092;-76
2021/03/10 04:34:57;;;;;;;87.45;49.65;;;;;;;3.60;76.35;95393.44;5009769;28;20053;-77
2021/03/10 04:37:22;;;;;;;88.70;51.05;;;;;;;3.92;76.80;95429.41;5008459;28;20037;-76
2021/03/10 04:39:47;;;;;;;88.93;51.53;;;;;;;3.78;77.61;95433.53;5011627;28;20113;-77
2021/03/10 04:42:13;;;;;;;84.72;48.15;;;;;;;3.68;77.56;95436.09;5024840;28;20042;-78
2021/03/10 04:44:38;;;;;;;85.40;49.85;;;;;;;4.05;77.38;95433.47;5008563;28;20129;-78
2021/03/10 04:47:04;;;;;;;86.13;50.95;;;;;;;3.43;78.78;95400.72;5007966;28;20073;-77
2021/03/10 04:49:29;;;;;;;87.95;48.00;;;;;;;3.27;80.09;95462.06;5008319;28;20539;-77
2021/03/10 04:51:55;;;;;;;88.78;49.45;;;;;;;2.95;80.51;95433.94;5015092;28;20148;-77
2021/03/10 04:54:20;;;;;;;83.43;48.03;;;;;;;2.81;81.10;95398.59;5011897;28;20042;-78
2021/03/10 04:56:45;;;;;;;87.28;50.20;;;;;;;3.18;79.90;95416.28;5010081;28;20133;-77
2021/03/10 04:59:11;;;;;;;93.18;49.95;;;;;;;3.15;81.45;95474.59;5011677;28;20088;-77
2021/03/10 05:01:36;;;;;;;90.20;48.92;;;;;;;2.57;83.49;95467.16;5011467;28;20108;-79
2021/03/10 05:04:02;;;;;;;97.63;52.30;;;;;;;2.51;81.85;95399.88;5013770;28;20022;-77
2021/03/10 05:06:28;;;;;;;88.47;50.97;;;;;;;2.99;81.70;95474.44;5011722;28;20030;-77
2021/03/10 05:08:53;;;;;;;88.65;49.38;;;;;;;2.54;83.80;95478.16;5012612;28;20101;-78
2021/03/10 05:11:19;;;;;;;85.97;46.72;;;;;;;2.00;84.77;95436.00;5012721;28;20487;-78
2021/03/10 05:13:44;;;;;;;93.60;51.08;;;;;;;2.28;84.71;95463.91;5012919;28;20049;-77
2021/03/10 05:16:10;;;;;;;90.53;50.38;;;;;;;2.18;84.40;95421.00;5013503;28;20241;-78
2021/03/10 05:18:35;;;;;;;88.47;47.28;;;;;;;2.11;85.17;95468.44;5010547;28;20064;-76
2021/03/10 05:21:00;;;;;;;97.68;50.95;;;;;;;2.52;85.14;95474.97;5010907;28;20050;-78
2021/03/10 05:23:26;;;;;;;92.07;51.10;;;;;;;1.86;84.97;95398.03;5007756;28;20049;-78
2021/03/10 05:25:51;;;;;;;90.45;50.75;;;;;;;2.54;84.39;95485.22;4996079;28;20476;-78
2021/03/10 05:28:16;;;;;;;86.60;42.95;;;;;;;1.43;85.84;95378.56;5012943;28;20460;-77
2021/03/10 05:30:42;;;;;;;89.45;48.70;;;;;;;2.01;85.69;95437.59;5012473;28;20599;-77
2021/03/10 05:33:07;;;;;;;95.38;49.90;;;;;;;2.47;84.55;95466.25;5010885;28;20080;-76
2021/03/10 05:35:32;;;;;;;101.15;50.05;;;;;;;2.14;84.70;95433.03;5010554;28;20499;-78
2021/03/10 05:37:58;;;;;;;89.78;46.03;;;;;;;2.17;84.95;95450.91;5007515;28;20551;-78
2021/03/10 05:40:25;;;;;;;89.65;45.65;;;;;;;2.18;85.98;95494.50;4993380;28;20038;-76
2021/03/10 05:42:51;;;;;;;92.10;48.03;;;;;;;2.19;86.04;95486.38;5029359;28;20026;-77
2021/03/10 05:45:16;;;;;;;85.35;42.95;;;;;;;2.20;85.24;95468.78;5010970;28;20053;-78
2021/03/10 05:47:42;;;;;;;92.43;50.20;;;;;;;2.30;85.08;95468.91;5011823;28;20046;-76
2021/03/10 05:50:08;;;;;;;92.75;49.85;;;;;;;2.03;85.87;95443.38;5012293;28;20034;-77
2021/03/10 05:52:36;;;;;;;95.30;48.20;;;;;;;1.68;85.67;95395.69;5012132;28;20061;-78
2021/03/10 05:55:01;;;;;;;92.10;47.30;;;;;;;2.25;84.77;95474.09;5012664;28;20085;-78
2021/03/10 05:57:28;;;;;;;77.85;37.92;;;;;;;1.54;86.86;95443.22;5010496;28;20042;-77
2021/03/10 05:59:53;;;;;;;87.03;49.22;;;;;;;2.32;86.12;95487.84;5010381;28;20034;-79
2021/03/10 06:02:19;;;;;;;62.38;32.58;;;;;;;1.66;87.15;95463.31;5009687;28;20042;-77
2021/03/10 06:04:44;;;;;;;87.38;48.03;;;;;;;2.41;85.11;95480.38;5011051;28;20064;-77
2021/03/10 06:07:23;;;;;;;83.50;46.42;;;;;;;2.13;86.26;95516.19;5012314;28;20080;-77
2021/03/10 06:09:58;;;;;;;81.28;47.35;;;;;;;2.02;85.08;95439.19;5027281;28;20137;-78
2021/03/10 06:12:24;;;;;;;85.70;48.90;;;;;;;2.20;85.42;95439.91;5010381;28;20045;-78
2021/03/10 06:15:02;;;;;;;68.65;33.05;;;;;;;1.36;87.71;95426.94;5009030;28;20042;-78
2021/03/10 06:17:27;;;;;;;86.60;45.58;;;;;;;1.59;86.98;95429.41;5009996;28;20046;-78
2021/03/10 06:19:53;;;;;;;82.85;42.33;;;;;;;1.94;87.13;95486.81;5010362;28;20037;-79
2021/03/10 06:22:19;;;;;;;88.57;48.85;;;;;;;2.14;87.44;95506.50;5012128;28;20030;-78
2021/03/10 06:24:48;;;;;;;87.55;47.97;;;;;;;1.69;87.51;95445.28;5026784;28;20044;-77
2021/03/10 06:27:20;;;;;;;72.80;35.33;;;;;;;1.48;88.45;95469.59;5010093;28;20165;-76
2021/03/10 06:29:57;;;;;;;82.70;47.60;;;;;;;1.98;87.01;95498.41;5010179;28;20045;-77
2021/03/10 06:32:22;;;;;;;77.25;39.95;;;;;;;1.73;86.96;95463.94;5009462;28;20057;-78
2021/03/10 06:34:50;;;;;;;86.63;49.55;;;;;;;2.46;85.53;95485.69;5009013;28;20041;-77
2021/03/10 06:37:32;;;;;;;80.43;45.33;;;;;;;2.32;85.07;95496.53;5011682;28;20365;-79
2021/03/10 06:40:12;;;;;;;70.22;39.30;;;;;;;1.94;85.38;95450.06;5026208;28;20069;-78
2021/03/10 06:42:37;;;;;;;73.15;37.15;;;;;;;2.23;85.94;95515.56;5009465;28;20037;-80
2021/03/10 06:45:04;;;;;;;75.07;44.13;;;;;;;2.46;85.74;95510.09;5011121;28;20030;-77
2021/03/10 06:47:40;;;;;;;65.70;37.72;;;;;;;2.19;86.40;95522.31;5009377;28;20396;-77
2021/03/10 06:50:08;;;;;;;69.97;38.88;;;;;;;2.02;86.84;95496.91;5009754;28;20089;-79
2021/03/10 06:52:34;;;;;;;76.10;44.83;;;;;;;2.15;86.53;95510.69;5009129;28;20388;-77
2021/03/10 06:55:01;;;;;;;78.28;40.55;;;;;;;2.00;85.57;95500.81;5011791;28;20050;-78
2021/03/10 06:57:26;;;;;;;70.72;39.75;;;;;;;2.47;85.61;95556.31;5009970;28;20069;-79
2021/03/10 06:59:54;;;;;;;75.78;45.63;;;;;;;2.43;86.29;95515.81;5010499;28;20076;-78
2021/03/10 07:02:27;;;;;;;64.72;33.78;;;;;;;2.29;86.71;95567.88;5009215;28;20613;-79
2021/03/10 07:04:55;;;;;;;80.07;44.28;;;;;;;2.50;85.69;95547.94;5006209;28;20039;-78
2021/03/10 07:07:22;;;;;;;66.35;36.35;;;;;;;2.46;85.43;95519.81;4988579;28;20034;-76
2021/03/10 07:09:47;;;;;;;71.53;43.55;;;;;;;3.12;83.24;95558.16;4994014;28;20027;-83
2021/03/10 07:12:15;;;;;;;74.00;43.63;;;;;;;3.40;82.91;95553.72;4992258;28;20104;-82
2021/03/10 07:14:41;;;;;;;66.00;36.30;;;;;;;3.13;82.47;95549.25;5001424;28;20034;-83
2021/03/10 07:17:08;;;;;;;65.53;39.42;;;;;;;3.30;81.60;95522.06;5011883;28;20046;-83
2021/03/10 07:19:34;;;;;;;66.03;40.38;;;;;;;3.46;80.60;95549.28;5010314;28;20075;-81
2021/03/10 07:22:10;;;;;;;66.50;41.20;;;;;;;3.02;83.45;95555.44;5013242;28;20113;-81
2021/03/10 07:24:42;;;;;;;66.22;38.33;;;;;;;3.00;83.89;95577.72;5010004;28;20041;-80
2021/03/10 07:27:09;;;;;;;68.72;38.97;;;;;;;3.00;84.85;95582.97;5005921;28;20164;-72
2021/03/10 07:29:40;;;;;;;66.18;39.38;;;;;;;3.35;82.52;95553.66;4989798;28;20172;-71
2021/03/10 07:32:22;;;;;;;61.10;38.65;;;;;;;3.27;81.89;95554.88;4993523;28;20046;-81
2021/03/10 07:34:58;;;;;;;57.38;37.47;;;;;;;3.48;81.96;95568.25;5010372;28;20041;-73
2021/03/10 07:37:23;;;;;;;65.82;39.25;;;;;;;3.84;81.04;95585.97;5009792;28;20030;-80
2021/03/10 07:39:49;;;;;;;63.78;37.83;;;;;;;3.74;79.96;95564.81;5011576;28;20026;-80
2021/03/10 07:42:17;;;;;;;59.63;33.88;;;;;;;4.06;79.10;95590.34;5010403;28;20045;-72
2021/03/10 07:44:54;;;;;;;61.58;38.13;;;;;;;3.73;80.41;95578.22;5010379;28;20042;-79
2021/03/10 07:47:21;;;;;;;55.42;36.13;;;;;;;3.50;82.18;95582.75;5010057;28;20030;-80
2021/03/10 07:49:58;;;;;;;50.67;30.67;;;;;;;3.10;82.79;95597.03;4997351;28;20117;-79
2021/03/10 07:52:26;;;;;;;55.10;31.15;;;;;;;3.27;82.10;95602.22;4992003;28;20092;-80
2021/03/10 07:55:03;;;;;;;58.17;36.97;;;;;;;3.55;82.36;95603.03;4994499;28;20018;-80
2021/03/10 07:57:34;;;;;;;58.90;36.00;;;;;;;3.29;82.46;95599.34;4993013;28;20124;-78
2021/03/10 08:00:03;;;;;;;58.22;35.78;;;;;;;3.42;81.42;95587.63;4999251;28;20039;-80
2021/03/10 08:02:41;;;;;;;63.15;36.40;;;;;;;3.71;81.75;95617.13;4998689;28;20057;-79
2021/03/10 08:05:18;;;;;;;56.58;34.22;;;;;;;3.64;81.39;95596.28;4995842;28;20077;-79
2021/03/10 08:07:43;;;;;;;53.65;30.10;;;;;;;3.36;82.77;95613.09;4995817;28;20113;-77
2021/03/10 08:10:09;;;;;;;59.78;36.97;;;;;;;3.63;81.82;95603.41;4993152;28;20069;-79
2021/03/10 08:12:37;;;;;;;65.05;38.63;;;;;;;3.60;81.92;95606.50;4991109;28;20030;-79
2021/03/10 08:15:04;;;;;;;59.20;35.72;;;;;;;4.34;78.98;95618.19;4991356;28;20126;-79
2021/03/10 08:17:29;;;;;;;55.45;36.38;;;;;;;4.51;78.61;95618.84;4991162;28;20030;-80
2021/03/10 08:20:05;;;;;;;58.25;36.20;;;;;;;4.56;76.93;95597.81;4991238;28;20031;-78
2021/03/10 08:22:32;;;;;;;56.53;36.60;;;;;;;4.29;78.21;95616.31;4989609;28;20026;-80
2021/03/10 08:25:00;;;;;;;59.15;36.47;;;;;;;4.23;78.73;95611.25;4974302;28;20027;-78
2021/03/10 08:27:42;;;;;;;58.22;35.85;;;;;;;4.28;79.06;95616.56;4992097;28;20034;-79
2021/03/10 08:30:09;;;;;;;50.53;29.98;;;;;;;4.21;76.75;95574.66;4995006;28;20098;-82
2021/03/10 08:32:35;;;;;;;45.67;25.67;;;;;;;3.66;80.11;95604.72;4985049;28;20123;-80
2021/03/10 08:35:19;;;;;;;53.53;31.70;;;;;;;4.07;79.46;95605.09;4975589;28;20405;-80
2021/03/10 08:38:00;;;;;;;59.30;35.15;;;;;;;4.21;79.13;95605.47;4975420;28;20075;-81
2021/03/10 08:40:29;;;;;;;62.15;35.97;;;;;;;4.21;79.26;95624.69;4976118;28;20031;-80
2021/03/10 08:42:58;;;;;;;59.22;33.90;;;;;;;3.80;80.47;95608.56;4995039;28;20024;-77
2021/03/10 08:45:27;;;;;;;62.95;37.28;;;;;;;4.22;79.68;95617.59;4977613;28;20129;-79
2021/03/10 08:47:58;;;;;;;64.47;37.03;;;;;;;3.79;80.81;95611.44;4985946;28;20038;-79
2021/03/10 08:50:36;;;;;;;60.67;36.47;;;;;;;3.77;81.20;95622.19;4994258;28;20134;-79
2021/03/10 08:53:03;;;;;;;58.22;31.88;;;;;;;3.49;81.83;95615.34;4994228;28;20039;-78
2021/03/10 08:55:28;;;;;;;77.07;39.53;;;;;;;3.20;84.36;95614.75;4993033;28;20062;-78
2021/03/10 08:57:54;;;;;;;86.93;44.20;;;;;;;3.28;84.80;95611.72;4976793;28;20143;-79
2021/03/10 09:00:23;;;;;;;67.88;34.42;;;;;;;3.08;84.60;95641.16;4991147;28;20511;-80
2021/03/10 09:02:50;;;;;;;77.03;43.17;;;;;;;3.54;83.91;95627.75;4982008;28;20042;-80
2021/03/10 09:05:17;;;;;;;72.03;39.83;;;;;;;3.49;83.38;95625.88;4974940;28;20027;-80
2021/03/10 09:07:46;;;;;;;79.88;43.13;;;;;;;3.75;83.80;95623.50;4974583;28;20118;-79
2021/03/10 09:10:14;;;;;;;79.93;42.65;;;;;;;3.56;83.61;95609.88;4976529;28;20568;-79
2021/03/10 09:12:45;;;;;;;73.90;41.45;;;;;;;4.13;82.24;95618.03;4974416;28;20126;-78
2021/03/10 09:15:13;;;;;;;63.10;34.72;;;;;;;3.78;81.51;95628.25;4974723;28;20122;-80
2021/03/10 09:17:39;;;;;;;77.72;40.40;;;;;;;3.84;82.53;95627.28;4985504;28;20041;-78
2021/03/10 09:20:09;;;;;;;65.55;36.55;;;;;;;3.60;82.47;95630.19;4993573;28;20085;-78
2021/03/10 09:22:43;;;;;;;64.25;36.55;;;;;;;3.37;83.65;95625.19;4992203;28;20484;-78
2021/03/10 09:25:11;;;;;;;56.25;32.03;;;;;;;3.61;82.59;95612.56;4994230;28;20042;-78
2021/03/10 09:27:37;;;;;;;58.00;31.42;;;;;;;3.76;81.43;95617.19;4993814;28;20042;-79
2021/03/10 09:30:22;;;;;;;47.80;30.35;;;;;;;4.12;80.52;95631.47;4994047;28;20428;-79
2021/03/10 09:32:48;;;;;;;54.42;34.05;;;;;;;4.57;79.15;95617.84;4995158;28;20039;-83
2021/03/10 09:35:22;;;;;;;54.45;31.90;;;;;;;4.31;80.26;95637.16;4994015;28;20029;-82
2021/03/10 09:38:00;;;;;;;52.50;33.42;;;;;;;4.78;79.26;95628.50;4993446;28;20049;-83
2021/03/10 09:40:37;;;;;;;52.78;32.28;;;;;;;4.92;78.13;95629.66;4993073;28;20492;-84
2021/03/10 09:43:06;;;;;;;46.30;29.48;;;;;;;4.72;77.22;95616.34;4994792;28;20031;-83
2021/03/10 09:45:33;;;;;;;40.72;26.65;;;;;;;4.99;76.54;95621.50;4994208;28;20045;-82
2021/03/10 09:47:58;;;;;;;44.78;30.42;;;;;;;5.16;76.60;95616.81;5008994;28;20037;-82
2021/03/10 09:50:48;;;;;;;46.42;31.05;;;;;;;4.70;77.00;95629.75;4993160;28;20042;-83
2021/03/10 09:53:25;;;;;;;42.15;26.55;;;;;;;4.69;77.31;95623.69;4992228;28;20042;-78
2021/03/10 09:55:52;;;;;;;41.85;27.58;;;;;;;4.69;77.34;95613.16;4993226;28;20042;-78
2021/03/10 09:58:18;;;;;;;45.70;30.05;;;;;;;4.86;77.77;95630.63;4993372;28;20022;-79
2021/03/10 10:00:44;;;;;;;44.88;28.45;;;;;;;4.49;78.94;95628.03;4993473;28;20035;-79
2021/03/10 10:03:11;;;;;;;45.45;24.40;;;;;;;4.74;77.20;95619.50;4992974;28;20495;-78
2021/03/10 10:05:40;;;;;;;41.65;28.08;;;;;;;5.35;76.05;95625.06;4992949;28;20049;-78
2021/03/10 10:08:10;;;;;;;42.15;27.65;;;;;;;5.32;75.92;95633.50;4992154;28;20459;-74
2021/03/10 10:10:37;;;;;;;39.15;24.77;;;;;;;4.94;77.38;95627.53;4997881;28;20306;-72
2021/03/10 10:13:04;;;;;;;36.22;26.13;;;;;;;6.03;74.00;95625.78;5006555;28;20108;-73
2021/03/10 10:15:33;;;;;;;38.40;25.90;;;;;;;5.71;73.91;95587.16;5000370;28;20074;-72
2021/03/10 10:18:02;;;;;;;27.88;19.10;;;;;;;6.23;69.45;95625.00;4987201;28;20046;-71
2021/03/10 10:20:31;;;;;;;37.08;25.67;;;;;;;5.78;71.16;95609.88;4991364;28;20122;-74
2021/03/10 10:22:56;;;;;;;24.27;15.75;;;;;;;5.59;72.23;95628.84;4992420;28;20261;-79
2021/03/10 10:25:22;;;;;;;36.08;22.20;;;;;;;5.22;72.42;95627.16;4992242;28;20114;-73
2021/03/10 10:27:49;;;;;;;28.33;18.83;;;;;;;5.42;71.98;95628.25;4994280;28;20384;-70
2021/03/10 10:30:17;;;;;;;36.88;25.08;;;;;;;5.63;72.21;95611.44;4992069;28;20097;-82
2021/03/10 10:32:44;;;;;;;38.03;25.20;;;;;;;6.30;70.19;95614.19;4992521;28;20035;-76
2021/03/10 10:35:11;;;;;;;34.13;23.60;;;;;;;5.75;71.83;95621.75;4992562;28;20046;-78
2021/03/10 10:37:37;;;;;;;31.25;21.08;;;;;;;5.33;70.25;95611.38;4990528;28;20675;-72
2021/03/10 10:40:06;;;;;;;29.42;21.27;;;;;;;4.90;72.16;95623.81;4993659;28;20042;-76
2021/03/10 10:42:31;;;;;;;33.97;23.75;;;;;;;4.89;72.82;95604.56;4991321;28;20041;-72
2021/03/10 10:44:57;;;;;;;31.77;21.05;;;;;;;5.05;71.96;95615.97;4990948;28;20038;-77
2021/03/10 10:47:22;;;;;;;33.90;24.60;;;;;;;5.93;70.12;95625.75;4991385;28;20114;-74
2021/03/10 10:49:48;;;;;;;34.08;22.83;;;;;;;5.09;71.49;95622.34;4990128;28;20036;-79
2021/03/10 10:52:13;;;;;;;35.35;23.30;;;;;;;5.52;71.17;95628.28;4994043;28;20034;-75
2021/03/10 10:54:39;;;;;;;33.90;23.45;;;;;;;5.55;70.45;95625.13;4991762;28;20042;-74
2021/03/10 10:57:04;;;;;;;32.33;20.13;;;;;;;5.31;70.20;95619.50;4990179;28;20511;-74
2021/03/10 10:59:31;;;;;;;29.60;21.42;;;;;;;5.38;70.58;95620.09;4991788;28;20034;-76
2021/03/10 11:01:57;;;;;;;28.42;22.83;;;;;;;6.13;69.71;95619.72;4990079;28;20081;-71
2021/03/10 11:04:23;;;;;;;30.20;22.38;;;;;;;5.82;68.81;95610.94;4990691;28;20388;-78
2021/03/10 11:06:48;;;;;;;30.45;22.85;;;;;;;5.55;69.63;95596.13;4992466;28;20018;-78
2021/03/10 11:09:13;;;;;;;30.83;22.90;;;;;;;6.22;68.44;95615.50;4991629;28;20046;-78
2021/03/10 11:11:40;;;;;;;32.72;21.55;;;;;;;6.06;67.68;95585.66;4991519;28;20166;-77
2021/03/10 11:14:06;;;;;;;28.50;21.88;;;;;;;6.91;64.74;95588.44;4991302;28;20041;-79
2021/03/10 11:16:31;;;;;;;26.92;21.33;;;;;;;7.55;61.69;95574.41;4991323;28;20030;-76
2021/03/10 11:18:56;;;;;;;25.92;20.33;;;;;;;7.91;60.35;95570.72;4995648;28;20034;-74
2021/03/10 11:21:22;;;;;;;25.10;20.38;;;;;;;7.62;60.41;95608.50;4989905;28;20042;-75
2021/03/10 11:23:47;;;;;;;24.27;20.77;;;;;;;7.63;60.77;95599.53;4991066;28;20502;-70
2021/03/10 11:26:13;;;;;;;24.48;21.08;;;;;;;7.61;60.86;95591.03;4988375;28;20030;-71
2021/03/10 11:28:39;;;;;;;23.38;19.88;;;;;;;7.42;61.40;95604.13;4990675;28;20113;-71